Terminal Aerodrome Forecast
Issued by NWS

Home | Current Version | Previous Version | Text Only | Print | Product List | Glossary On
Versions: 1 2 3 4 5 6 7 8 9 10 11 12 13 14 15 16 17 18 19 20 21 22
000
FTUS46 KEKA 090525
TAFUKI
TAF
KUKI 090525Z 0906/1006 17003KT 3SM -SHRA BR FEW003 OVC010
      TEMPO 0906/0910 1 1/2SM -SHRA BR BKN003 OVC007
     FM091800 16003KT 4SM -SHRA BR SCT005 OVC015
     FM100200 VRB03KT 2SM -RA BR SCT005 OVC010=

USA.gov is the U.S. government's official web portal to all federal, state and local government web resources and services.